sensor_id;sensor_type;location;lat;lon;timestamp;temperature;humidity
18337;DHT22;9294;51.106;7.028;2022-11-12T00:00:55;22.00;99.90
18337;DHT22;9294;51.106;7.028;2022-11-12T00:03:23;22.00;99.90
18337;DHT22;9294;51.106;7.028;2022-11-12T00:05:50;22.10;99.90
18337;DHT22;9294;51.106;7.028;2022-11-12T00:08:18;22.00;99.90
18337;DHT22;9294;51.106;7.028;2022-11-12T00:10:46;22.10;99.90
18337;DHT22;9294;51.106;7.028;2022-11-12T00:13:14;22.00;99.90
18337;DHT22;9294;51.106;7.028;2022-11-12T00:15:41;22.10;99.90
18337;DHT22;9294;51.106;7.028;2022-11-12T00:18:08;22.10;99.90
18337;DHT22;9294;51.106;7.028;2022-11-12T00:20:34;22.10;99.90
18337;DHT22;9294;51.106;7.028;2022-11-12T00:23:02;22.00;99.90
18337;DHT22;9294;51.106;7.028;2022-11-12T00:25:28;22.10;99.90
18337;DHT22;9294;51.106;7.028;2022-11-12T00:28:00;22.10;99.90
18337;DHT22;9294;51.106;7.028;2022-11-12T00:30:28;22.10;99.90
18337;DHT22;9294;51.106;7.028;2022-11-12T00:32:55;22.00;99.90
18337;DHT22;9294;51.106;7.028;2022-11-12T00:35:22;22.10;99.90
18337;DHT22;9294;51.106;7.028;2022-11-12T00:37:52;22.10;99.90
18337;DHT22;9294;51.106;7.028;2022-11-12T00:40:19;22.00;99.90
18337;DHT22;9294;51.106;7.028;2022-11-12T00:42:46;22.00;99.90
18337;DHT22;9294;51.106;7.028;2022-11-12T00:45:13;22.10;99.90
18337;DHT22;9294;51.106;7.028;2022-11-12T00:47:41;22.10;99.90
18337;DHT22;9294;51.106;7.028;2022-11-12T00:50:08;22.00;99.90
18337;DHT22;9294;51.106;7.028;2022-11-12T00:52:35;22.00;99.90
18337;DHT22;9294;51.106;7.028;2022-11-12T00:55:02;22.10;99.90
18337;DHT22;9294;51.106;7.028;2022-11-12T00:57:29;22.10;99.90
18337;DHT22;9294;51.106;7.028;2022-11-12T00:59:56;22.00;99.90
18337;DHT22;9294;51.106;7.028;2022-11-12T01:02:22;22.00;99.90
18337;DHT22;9294;51.106;7.028;2022-11-12T01:04:50;22.00;99.90
18337;DHT22;9294;51.106;7.028;2022-11-12T01:07:17;22.00;99.90
18337;DHT22;9294;51.106;7.028;2022-11-12T01:09:44;22.00;99.90
18337;DHT22;9294;51.106;7.028;2022-11-12T01:12:10;22.00;99.90
18337;DHT22;9294;51.106;7.028;2022-11-12T01:14:37;22.00;99.90
18337;DHT22;9294;51.106;7.028;2022-11-12T01:17:04;21.90;99.90
18337;DHT22;9294;51.106;7.028;2022-11-12T01:19:30;22.00;99.90
18337;DHT22;9294;51.106;7.028;2022-11-12T01:21:58;22.00;99.90
18337;DHT22;9294;51.106;7.028;2022-11-12T01:24:25;22.00;99.90
18337;DHT22;9294;51.106;7.028;2022-11-12T01:26:52;22.00;99.90
18337;DHT22;9294;51.106;7.028;2022-11-12T01:29:18;22.00;99.90
18337;DHT22;9294;51.106;7.028;2022-11-12T01:31:45;22.00;99.90
18337;DHT22;9294;51.106;7.028;2022-11-12T01:34:12;21.90;99.90
18337;DHT22;9294;51.106;7.028;2022-11-12T01:36:38;22.00;99.90
18337;DHT22;9294;51.106;7.028;2022-11-12T01:39:08;22.00;99.90
18337;DHT22;9294;51.106;7.028;2022-11-12T01:41:37;22.00;99.90
18337;DHT22;9294;51.106;7.028;2022-11-12T01:44:12;21.90;99.90
18337;DHT22;9294;51.106;7.028;2022-11-12T01:46:46;21.90;99.90
18337;DHT22;9294;51.106;7.028;2022-11-12T01:49:19;21.90;99.90
18337;DHT22;9294;51.106;7.028;2022-11-12T01:51:49;21.90;99.90
18337;DHT22;9294;51.106;7.028;2022-11-12T01:54:19;21.90;99.90
18337;DHT22;9294;51.106;7.028;2022-11-12T01:56:47;21.90;99.90
18337;DHT22;9294;51.106;7.028;2022-11-12T01:59:19;21.90;99.90
18337;DHT22;9294;51.106;7.028;2022-11-12T02:01:47;21.90;99.90
18337;DHT22;9294;51.106;7.028;2022-11-12T02:04:14;21.90;99.90
18337;DHT22;9294;51.106;7.028;2022-11-12T02:06:42;21.90;99.90
18337;DHT22;9294;51.106;7.028;2022-11-12T02:09:09;21.90;99.90
18337;DHT22;9294;51.106;7.028;2022-11-12T02:11:38;21.90;99.90
18337;DHT22;9294;51.106;7.028;2022-11-12T02:14:04;21.90;99.90
18337;DHT22;9294;51.106;7.028;2022-11-12T02:16:33;21.90;99.90
18337;DHT22;9294;51.106;7.028;2022-11-12T02:19:00;21.90;99.90
18337;DHT22;9294;51.106;7.028;2022-11-12T02:21:29;21.80;99.90
18337;DHT22;9294;51.106;7.028;2022-11-12T02:23:57;21.80;99.90
18337;DHT22;9294;51.106;7.028;2022-11-12T02:26:25;21.80;99.90
18337;DHT22;9294;51.106;7.028;2022-11-12T02:28:52;21.80;99.90
18337;DHT22;9294;51.106;7.028;2022-11-12T02:31:18;21.80;99.90
18337;DHT22;9294;51.106;7.028;2022-11-12T02:33:45;21.80;99.90
18337;DHT22;9294;51.106;7.028;2022-11-12T02:36:12;21.80;99.90
18337;DHT22;9294;51.106;7.028;2022-11-12T02:38:40;21.80;99.90
18337;DHT22;9294;51.106;7.028;2022-11-12T02:41:06;21.80;99.90
18337;DHT22;9294;51.106;7.028;2022-11-12T02:43:33;21.70;99.90
18337;DHT22;9294;51.106;7.028;2022-11-12T02:46:00;21.70;99.90
18337;DHT22;9294;51.106;7.028;2022-11-12T02:48:26;21.70;99.90
18337;DHT22;9294;51.106;7.028;2022-11-12T02:50:53;21.70;99.90
18337;DHT22;9294;51.106;7.028;2022-11-12T02:53:20;21.70;99.90
18337;DHT22;9294;51.106;7.028;2022-11-12T02:55:48;21.70;99.90
18337;DHT22;9294;51.106;7.028;2022-11-12T02:58:14;21.70;99.90
18337;DHT22;9294;51.106;7.028;2022-11-12T03:00:41;21.70;99.90
18337;DHT22;9294;51.106;7.028;2022-11-12T03:03:08;21.70;99.90
18337;DHT22;9294;51.106;7.028;2022-11-12T03:05:35;21.70;99.90
18337;DHT22;9294;51.106;7.028;2022-11-12T03:08:03;21.60;99.90
18337;DHT22;9294;51.106;7.028;2022-11-12T03:10:31;21.60;99.90
18337;DHT22;9294;51.106;7.028;2022-11-12T03:13:00;21.60;99.90
18337;DHT22;9294;51.106;7.028;2022-11-12T03:15:28;21.60;99.90
18337;DHT22;9294;51.106;7.028;2022-11-12T03:17:56;21.60;99.90
18337;DHT22;9294;51.106;7.028;2022-11-12T03:20:24;21.60;99.90
18337;DHT22;9294;51.106;7.028;2022-11-12T03:22:55;21.60;99.90
18337;DHT22;9294;51.106;7.028;2022-11-12T03:25:22;21.60;99.90
18337;DHT22;9294;51.106;7.028;2022-11-12T03:27:56;21.60;99.90
18337;DHT22;9294;51.106;7.028;2022-11-12T03:30:25;21.60;99.90
18337;DHT22;9294;51.106;7.028;2022-11-12T03:32:51;21.60;99.90
18337;DHT22;9294;51.106;7.028;2022-11-12T03:35:18;21.50;99.90
18337;DHT22;9294;51.106;7.028;2022-11-12T03:37:45;21.60;99.90
18337;DHT22;9294;51.106;7.028;2022-11-12T03:40:12;21.60;99.90
18337;DHT22;9294;51.106;7.028;2022-11-12T03:42:44;21.60;99.90
18337;DHT22;9294;51.106;7.028;2022-11-12T03:45:10;21.60;99.90
18337;DHT22;9294;51.106;7.028;2022-11-12T03:47:41;21.50;99.90
18337;DHT22;9294;51.106;7.028;2022-11-12T03:50:08;21.60;99.90
18337;DHT22;9294;51.106;7.028;2022-11-12T03:52:36;21.50;99.90
18337;DHT22;9294;51.106;7.028;2022-11-12T03:55:03;21.50;99.90
18337;DHT22;9294;51.106;7.028;2022-11-12T03:57:30;21.50;99.90
18337;DHT22;9294;51.106;7.028;2022-11-12T03:59:57;21.50;99.90
18337;DHT22;9294;51.106;7.028;2022-11-12T04:02:24;21.50;99.90
18337;DHT22;9294;51.106;7.028;2022-11-12T04:04:52;21.50;99.90
18337;DHT22;9294;51.106;7.028;2022-11-12T04:07:36;21.50;99.90
18337;DHT22;9294;51.106;7.028;2022-11-12T04:10:20;21.50;99.90
18337;DHT22;9294;51.106;7.028;2022-11-12T04:12:47;21.40;99.90
18337;DHT22;9294;51.106;7.028;2022-11-12T04:15:31;21.40;99.90
18337;DHT22;9294;51.106;7.028;2022-11-12T04:17:58;21.40;99.90
18337;DHT22;9294;51.106;7.028;2022-11-12T04:20:44;21.50;99.90
18337;DHT22;9294;51.106;7.028;2022-11-12T04:23:24;21.50;99.90
18337;DHT22;9294;51.106;7.028;2022-11-12T04:25:51;21.40;99.90
18337;DHT22;9294;51.106;7.028;2022-11-12T04:28:35;21.40;99.90
18337;DHT22;9294;51.106;7.028;2022-11-12T04:31:02;21.40;99.90
18337;DHT22;9294;51.106;7.028;2022-11-12T04:33:27;21.40;99.90
18337;DHT22;9294;51.106;7.028;2022-11-12T04:35:55;21.40;99.90
18337;DHT22;9294;51.106;7.028;2022-11-12T04:38:22;21.40;99.90
18337;DHT22;9294;51.106;7.028;2022-11-12T04:40:49;21.50;99.90
18337;DHT22;9294;51.106;7.028;2022-11-12T04:43:33;21.40;99.90
18337;DHT22;9294;51.106;7.028;2022-11-12T04:46:17;21.40;99.90
18337;DHT22;9294;51.106;7.028;2022-11-12T04:48:44;21.40;99.90
18337;DHT22;9294;51.106;7.028;2022-11-12T04:51:12;21.40;99.90
18337;DHT22;9294;51.106;7.028;2022-11-12T04:53:53;21.40;99.90
18337;DHT22;9294;51.106;7.028;2022-11-12T04:56:19;21.40;99.90
18337;DHT22;9294;51.106;7.028;2022-11-12T04:58:46;21.40;99.90
18337;DHT22;9294;51.106;7.028;2022-11-12T05:01:13;21.40;99.90
18337;DHT22;9294;51.106;7.028;2022-11-12T05:03:39;21.40;99.90
18337;DHT22;9294;51.106;7.028;2022-11-12T05:06:06;21.40;99.90
18337;DHT22;9294;51.106;7.028;2022-11-12T05:08:57;21.40;99.90
18337;DHT22;9294;51.106;7.028;2022-11-12T05:11:24;21.40;99.90
18337;DHT22;9294;51.106;7.028;2022-11-12T05:13:51;21.40;99.90
18337;DHT22;9294;51.106;7.028;2022-11-12T05:16:17;21.40;99.90
18337;DHT22;9294;51.106;7.028;2022-11-12T05:18:44;21.40;99.90
18337;DHT22;9294;51.106;7.028;2022-11-12T05:21:11;21.40;99.90
18337;DHT22;9294;51.106;7.028;2022-11-12T05:23:55;21.40;99.90
18337;DHT22;9294;51.106;7.028;2022-11-12T05:26:23;21.40;99.90
18337;DHT22;9294;51.106;7.028;2022-11-12T05:28:49;21.30;99.90
18337;DHT22;9294;51.106;7.028;2022-11-12T05:31:16;21.30;99.90
18337;DHT22;9294;51.106;7.028;2022-11-12T05:33:43;21.30;99.90
18337;DHT22;9294;51.106;7.028;2022-11-12T05:36:09;21.30;99.90
18337;DHT22;9294;51.106;7.028;2022-11-12T05:38:36;21.30;99.90
18337;DHT22;9294;51.106;7.028;2022-11-12T05:41:03;21.30;99.90
18337;DHT22;9294;51.106;7.028;2022-11-12T05:43:31;21.30;99.90
18337;DHT22;9294;51.106;7.028;2022-11-12T05:45:58;21.30;99.90
18337;DHT22;9294;51.106;7.028;2022-11-12T05:48:25;21.30;99.90
18337;DHT22;9294;51.106;7.028;2022-11-12T05:50:52;21.30;99.90
18337;DHT22;9294;51.106;7.028;2022-11-12T05:53:19;21.30;99.90
18337;DHT22;9294;51.106;7.028;2022-11-12T05:55:45;21.30;99.90
18337;DHT22;9294;51.106;7.028;2022-11-12T05:58:12;21.30;99.90
18337;DHT22;9294;51.106;7.028;2022-11-12T06:00:40;21.30;99.90
18337;DHT22;9294;51.106;7.028;2022-11-12T06:03:07;21.20;99.90
18337;DHT22;9294;51.106;7.028;2022-11-12T06:05:34;21.30;99.90
18337;DHT22;9294;51.106;7.028;2022-11-12T06:08:02;21.30;99.90
18337;DHT22;9294;51.106;7.028;2022-11-12T06:10:29;21.20;99.90
18337;DHT22;9294;51.106;7.028;2022-11-12T06:12:56;21.30;99.90
18337;DHT22;9294;51.106;7.028;2022-11-12T06:15:23;21.20;99.90
18337;DHT22;9294;51.106;7.028;2022-11-12T06:17:53;21.20;99.90
18337;DHT22;9294;51.106;7.028;2022-11-12T06:20:20;21.30;99.90
18337;DHT22;9294;51.106;7.028;2022-11-12T06:22:47;21.20;99.90
18337;DHT22;9294;51.106;7.028;2022-11-12T06:25:14;21.20;99.90
18337;DHT22;9294;51.106;7.028;2022-11-12T06:27:40;21.20;99.90
18337;DHT22;9294;51.106;7.028;2022-11-12T06:30:08;21.20;99.90
18337;DHT22;9294;51.106;7.028;2022-11-12T06:32:35;21.20;99.90
18337;DHT22;9294;51.106;7.028;2022-11-12T06:35:04;21.30;99.90
18337;DHT22;9294;51.106;7.028;2022-11-12T06:37:31;21.20;99.90
18337;DHT22;9294;51.106;7.028;2022-11-12T06:39:57;21.20;99.90
18337;DHT22;9294;51.106;7.028;2022-11-12T06:42:25;21.20;99.90
18337;DHT22;9294;51.106;7.028;2022-11-12T06:44:51;21.20;99.90
18337;DHT22;9294;51.106;7.028;2022-11-12T06:47:18;21.20;99.90
18337;DHT22;9294;51.106;7.028;2022-11-12T06:49:44;21.30;99.90
18337;DHT22;9294;51.106;7.028;2022-11-12T06:52:13;21.30;99.90
18337;DHT22;9294;51.106;7.028;2022-11-12T06:54:40;21.40;99.90
18337;DHT22;9294;51.106;7.028;2022-11-12T06:57:07;21.30;99.90
18337;DHT22;9294;51.106;7.028;2022-11-12T06:59:33;21.20;99.90
18337;DHT22;9294;51.106;7.028;2022-11-12T07:02:00;21.30;99.90
18337;DHT22;9294;51.106;7.028;2022-11-12T07:04:27;21.30;99.90
18337;DHT22;9294;51.106;7.028;2022-11-12T07:06:53;21.30;99.90
18337;DHT22;9294;51.106;7.028;2022-11-12T07:09:21;21.30;99.90
18337;DHT22;9294;51.106;7.028;2022-11-12T07:11:48;21.30;99.90
18337;DHT22;9294;51.106;7.028;2022-11-12T07:14:15;21.40;99.90
18337;DHT22;9294;51.106;7.028;2022-11-12T07:16:41;21.50;99.90
18337;DHT22;9294;51.106;7.028;2022-11-12T07:19:08;21.60;99.90
18337;DHT22;9294;51.106;7.028;2022-11-12T07:21:35;21.70;99.90
18337;DHT22;9294;51.106;7.028;2022-11-12T07:24:01;21.80;99.90
18337;DHT22;9294;51.106;7.028;2022-11-12T07:26:29;21.90;99.90
18337;DHT22;9294;51.106;7.028;2022-11-12T07:28:56;22.00;99.90
18337;DHT22;9294;51.106;7.028;2022-11-12T07:31:23;22.10;99.90
18337;DHT22;9294;51.106;7.028;2022-11-12T07:33:51;22.10;99.90
18337;DHT22;9294;51.106;7.028;2022-11-12T07:36:19;22.00;99.90
18337;DHT22;9294;51.106;7.028;2022-11-12T07:38:46;22.10;99.90
18337;DHT22;9294;51.106;7.028;2022-11-12T07:41:17;22.00;99.90
18337;DHT22;9294;51.106;7.028;2022-11-12T07:43:48;22.00;99.90
18337;DHT22;9294;51.106;7.028;2022-11-12T07:46:17;21.90;99.90
18337;DHT22;9294;51.106;7.028;2022-11-12T07:48:44;21.90;99.90
18337;DHT22;9294;51.106;7.028;2022-11-12T07:51:12;21.90;99.90
18337;DHT22;9294;51.106;7.028;2022-11-12T07:53:39;22.00;99.90
18337;DHT22;9294;51.106;7.028;2022-11-12T07:56:08;22.00;99.90
18337;DHT22;9294;51.106;7.028;2022-11-12T07:58:35;22.00;99.90
18337;DHT22;9294;51.106;7.028;2022-11-12T08:01:22;22.00;99.90
18337;DHT22;9294;51.106;7.028;2022-11-12T08:03:49;21.90;97.40
18337;DHT22;9294;51.106;7.028;2022-11-12T08:06:16;21.50;97.50
18337;DHT22;9294;51.106;7.028;2022-11-12T08:08:43;21.30;96.00
18337;DHT22;9294;51.106;7.028;2022-11-12T08:11:09;21.20;98.50
18337;DHT22;9294;51.106;7.028;2022-11-12T08:13:36;21.10;98.90
18337;DHT22;9294;51.106;7.028;2022-11-12T08:16:03;21.20;98.90
18337;DHT22;9294;51.106;7.028;2022-11-12T08:18:31;21.20;98.50
18337;DHT22;9294;51.106;7.028;2022-11-12T08:20:59;21.30;98.40
18337;DHT22;9294;51.106;7.028;2022-11-12T08:23:26;21.20;98.60
18337;DHT22;9294;51.106;7.028;2022-11-12T08:25:56;21.20;98.50
18337;DHT22;9294;51.106;7.028;2022-11-12T08:28:23;21.00;97.30
18337;DHT22;9294;51.106;7.028;2022-11-12T08:30:50;20.90;96.50
18337;DHT22;9294;51.106;7.028;2022-11-12T08:33:17;20.90;96.20
18337;DHT22;9294;51.106;7.028;2022-11-12T08:35:45;20.80;95.50
18337;DHT22;9294;51.106;7.028;2022-11-12T08:38:11;20.80;95.30
18337;DHT22;9294;51.106;7.028;2022-11-12T08:40:39;20.80;94.90
18337;DHT22;9294;51.106;7.028;2022-11-12T08:43:07;21.10;96.30
18337;DHT22;9294;51.106;7.028;2022-11-12T08:45:36;21.30;97.20
18337;DHT22;9294;51.106;7.028;2022-11-12T08:48:05;21.50;93.70
18337;DHT22;9294;51.106;7.028;2022-11-12T08:50:33;21.50;93.70
18337;DHT22;9294;51.106;7.028;2022-11-12T08:53:02;21.60;94.70
18337;DHT22;9294;51.106;7.028;2022-11-12T08:55:30;21.40;94.90
18337;DHT22;9294;51.106;7.028;2022-11-12T08:57:58;21.30;94.30
18337;DHT22;9294;51.106;7.028;2022-11-12T09:00:26;21.30;95.60
18337;DHT22;9294;51.106;7.028;2022-11-12T09:02:53;21.30;94.90
18337;DHT22;9294;51.106;7.028;2022-11-12T09:05:20;21.20;94.40
18337;DHT22;9294;51.106;7.028;2022-11-12T09:07:47;21.10;94.30
18337;DHT22;9294;51.106;7.028;2022-11-12T09:10:15;21.00;94.60
18337;DHT22;9294;51.106;7.028;2022-11-12T09:12:42;20.90;94.90
18337;DHT22;9294;51.106;7.028;2022-11-12T09:15:09;20.80;95.30
18337;DHT22;9294;51.106;7.028;2022-11-12T09:17:35;20.70;95.50
18337;DHT22;9294;51.106;7.028;2022-11-12T09:20:02;20.70;95.70
18337;DHT22;9294;51.106;7.028;2022-11-12T09:22:29;20.70;95.90
18337;DHT22;9294;51.106;7.028;2022-11-12T09:24:57;20.80;95.90
18337;DHT22;9294;51.106;7.028;2022-11-12T09:27:26;20.80;96.00
18337;DHT22;9294;51.106;7.028;2022-11-12T09:29:53;20.80;96.10
18337;DHT22;9294;51.106;7.028;2022-11-12T09:32:20;20.80;96.30
18337;DHT22;9294;51.106;7.028;2022-11-12T09:34:47;20.70;96.40
18337;DHT22;9294;51.106;7.028;2022-11-12T09:37:14;20.80;96.40
18337;DHT22;9294;51.106;7.028;2022-11-12T09:39:40;20.80;96.40
18337;DHT22;9294;51.106;7.028;2022-11-12T09:42:10;20.80;96.60
18337;DHT22;9294;51.106;7.028;2022-11-12T09:44:41;20.80;96.70
18337;DHT22;9294;51.106;7.028;2022-11-12T09:47:15;20.80;96.70
18337;DHT22;9294;51.106;7.028;2022-11-12T09:49:47;20.80;96.80
18337;DHT22;9294;51.106;7.028;2022-11-12T09:52:19;20.70;96.90
18337;DHT22;9294;51.106;7.028;2022-11-12T09:54:51;20.70;96.90
18337;DHT22;9294;51.106;7.028;2022-11-12T09:57:20;20.80;97.10
18337;DHT22;9294;51.106;7.028;2022-11-12T09:59:48;20.80;97.20
18337;DHT22;9294;51.106;7.028;2022-11-12T10:02:24;20.80;97.20
18337;DHT22;9294;51.106;7.028;2022-11-12T10:05:04;20.80;97.30
18337;DHT22;9294;51.106;7.028;2022-11-12T10:07:41;20.80;97.30
18337;DHT22;9294;51.106;7.028;2022-11-12T10:10:14;20.80;97.30
18337;DHT22;9294;51.106;7.028;2022-11-12T10:12:53;20.80;97.40
18337;DHT22;9294;51.106;7.028;2022-11-12T10:15:41;20.80;97.40
18337;DHT22;9294;51.106;7.028;2022-11-12T10:18:44;20.80;97.40
18337;DHT22;9294;51.106;7.028;2022-11-12T10:21:21;20.80;97.50
18337;DHT22;9294;51.106;7.028;2022-11-12T10:23:50;20.80;97.50
18337;DHT22;9294;51.106;7.028;2022-11-12T10:26:19;20.90;97.60
18337;DHT22;9294;51.106;7.028;2022-11-12T10:28:48;20.80;97.50
18337;DHT22;9294;51.106;7.028;2022-11-12T10:31:18;20.80;97.50
18337;DHT22;9294;51.106;7.028;2022-11-12T10:33:46;20.90;97.60
18337;DHT22;9294;51.106;7.028;2022-11-12T10:36:20;20.90;97.60
18337;DHT22;9294;51.106;7.028;2022-11-12T10:38:52;20.90;97.60
18337;DHT22;9294;51.106;7.028;2022-11-12T10:41:22;20.90;97.70
18337;DHT22;9294;51.106;7.028;2022-11-12T10:43:54;20.90;97.70
18337;DHT22;9294;51.106;7.028;2022-11-12T10:46:23;20.90;97.70
18337;DHT22;9294;51.106;7.028;2022-11-12T10:48:56;20.90;97.70
18337;DHT22;9294;51.106;7.028;2022-11-12T10:51:27;20.90;97.80
18337;DHT22;9294;51.106;7.028;2022-11-12T10:53:54;20.80;97.80
18337;DHT22;9294;51.106;7.028;2022-11-12T10:56:24;20.90;97.90
18337;DHT22;9294;51.106;7.028;2022-11-12T10:59:13;20.90;97.90
18337;DHT22;9294;51.106;7.028;2022-11-12T11:01:42;20.90;97.90
18337;DHT22;9294;51.106;7.028;2022-11-12T11:04:24;20.90;98.00
18337;DHT22;9294;51.106;7.028;2022-11-12T11:07:02;20.90;97.90
18337;DHT22;9294;51.106;7.028;2022-11-12T11:09:30;20.90;98.10
18337;DHT22;9294;51.106;7.028;2022-11-12T11:11:57;20.90;98.10
18337;DHT22;9294;51.106;7.028;2022-11-12T11:14:26;20.80;98.00
18337;DHT22;9294;51.106;7.028;2022-11-12T11:16:58;20.90;98.10
18337;DHT22;9294;51.106;7.028;2022-11-12T11:19:32;20.90;98.10
18337;DHT22;9294;51.106;7.028;2022-11-12T11:22:22;20.90;98.20
18337;DHT22;9294;51.106;7.028;2022-11-12T11:25:01;20.90;98.20
18337;DHT22;9294;51.106;7.028;2022-11-12T11:27:36;20.80;98.20
18337;DHT22;9294;51.106;7.028;2022-11-12T11:30:08;20.90;98.30
18337;DHT22;9294;51.106;7.028;2022-11-12T11:32:52;20.90;98.40
18337;DHT22;9294;51.106;7.028;2022-11-12T11:35:27;20.90;98.40
18337;DHT22;9294;51.106;7.028;2022-11-12T11:38:04;20.90;98.40
18337;DHT22;9294;51.106;7.028;2022-11-12T11:40:36;20.90;98.40
18337;DHT22;9294;51.106;7.028;2022-11-12T11:43:29;20.90;98.40
18337;DHT22;9294;51.106;7.028;2022-11-12T11:46:06;20.90;98.20
18337;DHT22;9294;51.106;7.028;2022-11-12T11:48:46;21.00;98.10
18337;DHT22;9294;51.106;7.028;2022-11-12T11:51:26;21.00;98.10
18337;DHT22;9294;51.106;7.028;2022-11-12T11:54:01;21.00;98.00
18337;DHT22;9294;51.106;7.028;2022-11-12T11:56:33;21.00;98.10
18337;DHT22;9294;51.106;7.028;2022-11-12T11:59:18;21.00;98.10
18337;DHT22;9294;51.106;7.028;2022-11-12T12:02:03;21.00;98.00
18337;DHT22;9294;51.106;7.028;2022-11-12T12:04:43;21.10;97.90
18337;DHT22;9294;51.106;7.028;2022-11-12T12:07:19;21.00;97.90
18337;DHT22;9294;51.106;7.028;2022-11-12T12:09:53;21.10;98.00
18337;DHT22;9294;51.106;7.028;2022-11-12T12:12:31;21.10;97.80
18337;DHT22;9294;51.106;7.028;2022-11-12T12:15:21;21.10;97.70
18337;DHT22;9294;51.106;7.028;2022-11-12T12:17:54;21.10;97.70
18337;DHT22;9294;51.106;7.028;2022-11-12T12:20:31;21.10;97.90
18337;DHT22;9294;51.106;7.028;2022-11-12T12:23:03;21.10;97.90
18337;DHT22;9294;51.106;7.028;2022-11-12T12:25:33;21.10;97.80
18337;DHT22;9294;51.106;7.028;2022-11-12T12:28:06;21.10;97.80
18337;DHT22;9294;51.106;7.028;2022-11-12T12:30:39;21.10;97.80
18337;DHT22;9294;51.106;7.028;2022-11-12T12:33:16;21.10;97.70
18337;DHT22;9294;51.106;7.028;2022-11-12T12:35:52;21.20;97.80
18337;DHT22;9294;51.106;7.028;2022-11-12T12:38:25;21.20;97.70
18337;DHT22;9294;51.106;7.028;2022-11-12T12:40:58;21.20;97.80
18337;DHT22;9294;51.106;7.028;2022-11-12T12:43:33;21.20;97.60
18337;DHT22;9294;51.106;7.028;2022-11-12T12:46:01;21.20;97.60
18337;DHT22;9294;51.106;7.028;2022-11-12T12:48:30;21.20;97.50
18337;DHT22;9294;51.106;7.028;2022-11-12T12:51:00;21.20;97.50
18337;DHT22;9294;51.106;7.028;2022-11-12T12:53:32;21.30;97.50
18337;DHT22;9294;51.106;7.028;2022-11-12T12:56:00;21.30;97.40
18337;DHT22;9294;51.106;7.028;2022-11-12T12:58:29;21.30;97.30
18337;DHT22;9294;51.106;7.028;2022-11-12T13:01:01;21.30;97.40
18337;DHT22;9294;51.106;7.028;2022-11-12T13:03:59;21.20;97.40
18337;DHT22;9294;51.106;7.028;2022-11-12T13:06:31;21.30;97.40
18337;DHT22;9294;51.106;7.028;2022-11-12T13:09:02;21.30;97.30
18337;DHT22;9294;51.106;7.028;2022-11-12T13:11:45;21.30;97.20
18337;DHT22;9294;51.106;7.028;2022-11-12T13:17:47;21.40;97.30
18337;DHT22;9294;51.106;7.028;2022-11-12T13:20:33;21.40;97.20
18337;DHT22;9294;51.106;7.028;2022-11-12T13:23:02;21.30;97.10
18337;DHT22;9294;51.106;7.028;2022-11-12T13:25:31;21.40;97.30
18337;DHT22;9294;51.106;7.028;2022-11-12T13:28:05;21.40;97.20
18337;DHT22;9294;51.106;7.028;2022-11-12T13:33:25;21.50;97.20
18337;DHT22;9294;51.106;7.028;2022-11-12T13:36:23;21.40;97.10
18337;DHT22;9294;51.106;7.028;2022-11-12T13:38:52;21.40;97.10
18337;DHT22;9294;51.106;7.028;2022-11-12T13:41:21;21.40;97.10
18337;DHT22;9294;51.106;7.028;2022-11-12T13:44:13;21.40;97.20
18337;DHT22;9294;51.106;7.028;2022-11-12T13:46:41;21.40;97.30
18337;DHT22;9294;51.106;7.028;2022-11-12T13:49:12;21.30;97.20
18337;DHT22;9294;51.106;7.028;2022-11-12T13:51:41;21.40;97.30
18337;DHT22;9294;51.106;7.028;2022-11-12T13:54:32;21.30;97.20
18337;DHT22;9294;51.106;7.028;2022-11-12T13:59:48;21.40;97.30
18337;DHT22;9294;51.106;7.028;2022-11-12T14:02:19;21.30;97.30
18337;DHT22;9294;51.106;7.028;2022-11-12T14:04:47;21.30;97.40
18337;DHT22;9294;51.106;7.028;2022-11-12T14:07:29;21.30;97.30
18337;DHT22;9294;51.106;7.028;2022-11-12T14:10:03;21.30;97.40
18337;DHT22;9294;51.106;7.028;2022-11-12T14:12:48;21.30;97.30
18337;DHT22;9294;51.106;7.028;2022-11-12T14:15:28;21.30;97.40
18337;DHT22;9294;51.106;7.028;2022-11-12T14:18:05;21.30;97.40
18337;DHT22;9294;51.106;7.028;2022-11-12T14:20:35;21.30;97.50
18337;DHT22;9294;51.106;7.028;2022-11-12T14:23:03;21.30;97.50
18337;DHT22;9294;51.106;7.028;2022-11-12T14:25:44;21.30;97.40
18337;DHT22;9294;51.106;7.028;2022-11-12T14:28:23;21.30;97.50
18337;DHT22;9294;51.106;7.028;2022-11-12T14:30:50;21.30;97.50
18337;DHT22;9294;51.106;7.028;2022-11-12T14:33:19;21.30;97.50
18337;DHT22;9294;51.106;7.028;2022-11-12T14:35:46;21.30;97.50
18337;DHT22;9294;51.106;7.028;2022-11-12T14:38:17;21.30;97.50
18337;DHT22;9294;51.106;7.028;2022-11-12T14:40:49;21.30;97.90
18337;DHT22;9294;51.106;7.028;2022-11-12T14:43:23;21.20;97.60
18337;DHT22;9294;51.106;7.028;2022-11-12T14:45:53;21.20;97.60
18337;DHT22;9294;51.106;7.028;2022-11-12T14:48:20;21.20;97.60
18337;DHT22;9294;51.106;7.028;2022-11-12T14:50:51;21.20;97.60
18337;DHT22;9294;51.106;7.028;2022-11-12T14:53:24;21.20;97.60
18337;DHT22;9294;51.106;7.028;2022-11-12T14:55:54;21.20;97.60
18337;DHT22;9294;51.106;7.028;2022-11-12T14:58:22;21.20;97.60
18337;DHT22;9294;51.106;7.028;2022-11-12T15:00:52;21.30;97.70
18337;DHT22;9294;51.106;7.028;2022-11-12T15:03:22;21.30;97.60
18337;DHT22;9294;51.106;7.028;2022-11-12T15:05:58;21.20;97.60
18337;DHT22;9294;51.106;7.028;2022-11-12T15:08:34;21.20;97.70
18337;DHT22;9294;51.106;7.028;2022-11-12T15:11:18;21.20;97.70
18337;DHT22;9294;51.106;7.028;2022-11-12T15:13:46;21.20;97.60
18337;DHT22;9294;51.106;7.028;2022-11-12T15:16:18;21.20;97.70
18337;DHT22;9294;51.106;7.028;2022-11-12T15:19:03;21.20;97.70
18337;DHT22;9294;51.106;7.028;2022-11-12T15:21:30;21.20;97.70
18337;DHT22;9294;51.106;7.028;2022-11-12T15:24:04;21.20;97.60
18337;DHT22;9294;51.106;7.028;2022-11-12T15:26:34;21.20;97.70
18337;DHT22;9294;51.106;7.028;2022-11-12T15:29:10;21.20;97.60
18337;DHT22;9294;51.106;7.028;2022-11-12T15:31:43;21.20;97.60
18337;DHT22;9294;51.106;7.028;2022-11-12T15:34:47;21.20;97.60
18337;DHT22;9294;51.106;7.028;2022-11-12T15:37:26;21.20;97.70
18337;DHT22;9294;51.106;7.028;2022-11-12T15:39:55;21.20;97.70
18337;DHT22;9294;51.106;7.028;2022-11-12T15:42:26;21.20;97.70
18337;DHT22;9294;51.106;7.028;2022-11-12T15:44:57;21.20;97.70
18337;DHT22;9294;51.106;7.028;2022-11-12T15:47:24;21.20;97.70
18337;DHT22;9294;51.106;7.028;2022-11-12T15:49:52;21.20;98.10
18337;DHT22;9294;51.106;7.028;2022-11-12T15:52:19;21.20;97.80
18337;DHT22;9294;51.106;7.028;2022-11-12T15:54:46;21.10;97.80
18337;DHT22;9294;51.106;7.028;2022-11-12T15:57:14;21.20;97.80
18337;DHT22;9294;51.106;7.028;2022-11-12T15:59:43;21.10;97.70
18337;DHT22;9294;51.106;7.028;2022-11-12T16:02:12;21.10;97.80
18337;DHT22;9294;51.106;7.028;2022-11-12T16:04:39;21.10;97.80
18337;DHT22;9294;51.106;7.028;2022-11-12T16:07:06;21.20;97.80
18337;DHT22;9294;51.106;7.028;2022-11-12T16:09:33;21.10;97.80
18337;DHT22;9294;51.106;7.028;2022-11-12T16:12:01;21.10;97.80
18337;DHT22;9294;51.106;7.028;2022-11-12T16:14:27;21.10;97.90